sensor_id;sensor_type;location;lat;lon;timestamp;pressure;altitude;pressure_sealevel;temperature;humidity
67931;BME280;63902;52.000;5.954;2023-01-30T00:00:08;101317.81;;;3.62;100.00
67931;BME280;63902;52.000;5.954;2023-01-30T00:01:14;101311.66;;;3.61;100.00
67931;BME280;63902;52.000;5.954;2023-01-30T00:02:15;101316.91;;;3.61;100.00
67931;BME280;63902;52.000;5.954;2023-01-30T00:03:15;101317.78;;;3.60;100.00
67931;BME280;63902;52.000;5.954;2023-01-30T00:04:16;101318.69;;;3.59;100.00
67931;BME280;63902;52.000;5.954;2023-01-30T00:05:16;101316.03;;;3.61;100.00
67931;BME280;63902;52.000;5.954;2023-01-30T00:06:17;101283.75;;;3.51;100.00
67931;BME280;63902;52.000;5.954;2023-01-30T00:07:17;101302.94;;;3.61;100.00
67931;BME280;63902;52.000;5.954;2023-01-30T00:08:18;101299.44;;;3.62;100.00
67931;BME280;63902;52.000;5.954;2023-01-30T00:09:19;101300.31;;;3.62;100.00
67931;BME280;63902;52.000;5.954;2023-01-30T00:10:19;101297.66;;;3.65;100.00
67931;BME280;63902;52.000;5.954;2023-01-30T00:11:21;101302.91;;;3.65;100.00
67931;BME280;63902;52.000;5.954;2023-01-30T00:12:22;101311.66;;;3.67;100.00
67931;BME280;63902;52.000;5.954;2023-01-30T00:13:22;101305.50;;;3.67;100.00
67931;BME280;63902;52.000;5.954;2023-01-30T00:14:23;101296.78;;;3.68;100.00
67931;BME280;63902;52.000;5.954;2023-01-30T00:15:25;101297.66;;;3.68;100.00
67931;BME280;63902;52.000;5.954;2023-01-30T00:16:25;101305.53;;;3.68;100.00
67931;BME280;63902;52.000;5.954;2023-01-30T00:17:26;101295.91;;;3.67;100.00
67931;BME280;63902;52.000;5.954;2023-01-30T00:18:26;101301.16;;;3.67;100.00
67931;BME280;63902;52.000;5.954;2023-01-30T00:19:26;101289.78;;;3.68;100.00
67931;BME280;63902;52.000;5.954;2023-01-30T00:20:27;101302.03;;;3.68;100.00
67931;BME280;63902;52.000;5.954;2023-01-30T00:21:27;101292.41;;;3.68;100.00
67931;BME280;63902;52.000;5.954;2023-01-30T00:22:28;101280.19;;;3.61;100.00
67931;BME280;63902;52.000;5.954;2023-01-30T00:23:29;101290.66;;;3.70;100.00
67931;BME280;63902;52.000;5.954;2023-01-30T00:24:30;101290.66;;;3.70;100.00
67931;BME280;63902;52.000;5.954;2023-01-30T00:25:30;101293.25;;;3.72;100.00
67931;BME280;63902;52.000;5.954;2023-01-30T00:26:31;101290.66;;;3.70;100.00
67931;BME280;63902;52.000;5.954;2023-01-30T00:27:31;101306.38;;;3.72;100.00
67931;BME280;63902;52.000;5.954;2023-01-30T00:28:32;101295.00;;;3.74;100.00
67931;BME280;63902;52.000;5.954;2023-01-30T00:29:32;101286.25;;;3.72;100.00
67931;BME280;63902;52.000;5.954;2023-01-30T00:30:34;101285.38;;;3.72;100.00
67931;BME280;63902;52.000;5.954;2023-01-30T00:31:35;101283.63;;;3.72;100.00
67931;BME280;63902;52.000;5.954;2023-01-30T00:32:35;101276.63;;;3.74;100.00
67931;BME280;63902;52.000;5.954;2023-01-30T00:33:36;101272.28;;;3.70;100.00
67931;BME280;63902;52.000;5.954;2023-01-30T00:34:37;101269.63;;;3.72;100.00
67931;BME280;63902;52.000;5.954;2023-01-30T00:35:42;101266.19;;;3.70;100.00
67931;BME280;63902;52.000;5.954;2023-01-30T00:36:43;101258.28;;;3.73;100.00
67931;BME280;63902;52.000;5.954;2023-01-30T00:37:43;101253.03;;;3.73;100.00
67931;BME280;63902;52.000;5.954;2023-01-30T00:38:43;101260.03;;;3.74;100.00
67931;BME280;63902;52.000;5.954;2023-01-30T00:39:44;101256.50;;;3.75;100.00
67931;BME280;63902;52.000;5.954;2023-01-30T00:40:45;101260.03;;;3.75;100.00
67931;BME280;63902;52.000;5.954;2023-01-30T00:41:46;101266.97;;;3.78;100.00
67931;BME280;63902;52.000;5.954;2023-01-30T00:42:46;101264.38;;;3.76;100.00
67931;BME280;63902;52.000;5.954;2023-01-30T00:43:47;101264.38;;;3.76;100.00
67931;BME280;63902;52.000;5.954;2023-01-30T00:44:47;101254.75;;;3.77;100.00
67931;BME280;63902;52.000;5.954;2023-01-30T00:45:51;101250.38;;;3.77;100.00
67931;BME280;63902;52.000;5.954;2023-01-30T00:46:53;101245.13;;;3.74;100.00
67931;BME280;63902;52.000;5.954;2023-01-30T00:47:54;101250.41;;;3.76;100.00
67931;BME280;63902;52.000;5.954;2023-01-30T00:48:54;101253.88;;;3.76;100.00
67931;BME280;63902;52.000;5.954;2023-01-30T00:49:55;101242.50;;;3.77;100.00
67931;BME280;63902;52.000;5.954;2023-01-30T00:50:55;101258.25;;;3.79;100.00
67931;BME280;63902;52.000;5.954;2023-01-30T00:51:56;101259.13;;;3.81;100.00
67931;BME280;63902;52.000;5.954;2023-01-30T00:52:56;101254.72;;;3.81;100.00
67931;BME280;63902;52.000;5.954;2023-01-30T00:53:57;101241.59;;;3.83;100.00
67931;BME280;63902;52.000;5.954;2023-01-30T00:54:57;101230.22;;;3.84;100.00
67931;BME280;63902;52.000;5.954;2023-01-30T00:55:57;101226.75;;;3.79;100.00
67931;BME280;63902;52.000;5.954;2023-01-30T00:56:58;101231.09;;;3.83;100.00
67931;BME280;63902;52.000;5.954;2023-01-30T00:57:59;101234.56;;;3.84;100.00
67931;BME280;63902;52.000;5.954;2023-01-30T00:58:59;101242.44;;;3.84;100.00
67931;BME280;63902;52.000;5.954;2023-01-30T01:00:00;101231.09;;;3.85;100.00
67931;BME280;63902;52.000;5.954;2023-01-30T01:01:02;101224.06;;;3.90;100.00
67931;BME280;63902;52.000;5.954;2023-01-30T01:02:02;101202.28;;;3.77;100.00
67931;BME280;63902;52.000;5.954;2023-01-30T01:03:03;101220.53;;;3.89;100.00
67931;BME280;63902;52.000;5.954;2023-01-30T01:04:04;101215.31;;;3.91;100.00
67931;BME280;63902;52.000;5.954;2023-01-30T01:05:05;101218.78;;;3.91;100.00
67931;BME280;63902;52.000;5.954;2023-01-30T01:06:06;101211.78;;;3.92;100.00
67931;BME280;63902;52.000;5.954;2023-01-30T01:07:06;101214.41;;;3.93;100.00
67931;BME280;63902;52.000;5.954;2023-01-30T01:08:06;101200.47;;;3.85;100.00
67931;BME280;63902;52.000;5.954;2023-01-30T01:09:07;101215.28;;;3.94;100.00
67931;BME280;63902;52.000;5.954;2023-01-30T01:10:08;101201.25;;;3.95;100.00
67931;BME280;63902;52.000;5.954;2023-01-30T01:11:09;101199.53;;;3.94;100.00
67931;BME280;63902;52.000;5.954;2023-01-30T01:12:09;101211.75;;;3.98;100.00
67931;BME280;63902;52.000;5.954;2023-01-30T01:13:10;101207.38;;;3.97;100.00
67931;BME280;63902;52.000;5.954;2023-01-30T01:14:10;101213.53;;;3.96;100.00
67931;BME280;63902;52.000;5.954;2023-01-30T01:15:12;101217.88;;;3.97;100.00
67931;BME280;63902;52.000;5.954;2023-01-30T01:16:14;101219.59;;;4.01;100.00
67931;BME280;63902;52.000;5.954;2023-01-30T01:17:14;101206.50;;;3.98;100.00
67931;BME280;63902;52.000;5.954;2023-01-30T01:18:15;101214.31;;;4.02;100.00
67931;BME280;63902;52.000;5.954;2023-01-30T01:19:15;101223.03;;;4.06;100.00
67931;BME280;63902;52.000;5.954;2023-01-30T01:20:17;101222.16;;;4.09;100.00
67931;BME280;63902;52.000;5.954;2023-01-30T01:21:18;101219.53;;;4.09;100.00
67931;BME280;63902;52.000;5.954;2023-01-30T01:22:19;101213.41;;;4.08;100.00
67931;BME280;63902;52.000;5.954;2023-01-30T01:23:19;101209.91;;;4.09;100.00
67931;BME280;63902;52.000;5.954;2023-01-30T01:24:20;101211.69;;;4.07;100.00
67931;BME280;63902;52.000;5.954;2023-01-30T01:25:20;101212.53;;;4.09;100.00
67931;BME280;63902;52.000;5.954;2023-01-30T01:26:21;101185.50;;;3.98;100.00
67931;BME280;63902;52.000;5.954;2023-01-30T01:27:22;101191.50;;;4.14;100.00
67931;BME280;63902;52.000;5.954;2023-01-30T01:28:22;101199.41;;;4.11;100.00
67931;BME280;63902;52.000;5.954;2023-01-30T01:29:23;101191.50;;;4.15;100.00
67931;BME280;63902;52.000;5.954;2023-01-30T01:30:23;101191.50;;;4.14;100.00
67931;BME280;63902;52.000;5.954;2023-01-30T01:31:25;101188.88;;;4.11;100.00
67931;BME280;63902;52.000;5.954;2023-01-30T01:32:26;101189.72;;;4.14;100.00
67931;BME280;63902;52.000;5.954;2023-01-30T01:33:27;101199.38;;;4.15;100.00
67931;BME280;63902;52.000;5.954;2023-01-30T01:34:27;101192.34;;;4.14;100.00
67931;BME280;63902;52.000;5.954;2023-01-30T01:35:28;101188.00;;;4.15;100.00
67931;BME280;63902;52.000;5.954;2023-01-30T01:36:28;101183.63;;;4.14;100.00
67931;BME280;63902;52.000;5.954;2023-01-30T01:37:28;101178.34;;;4.14;100.00
67931;BME280;63902;52.000;5.954;2023-01-30T01:38:29;101179.22;;;4.14;100.00
67931;BME280;63902;52.000;5.954;2023-01-30T01:39:29;101177.50;;;4.13;100.00
67931;BME280;63902;52.000;5.954;2023-01-30T01:40:30;101178.38;;;4.15;100.00
67931;BME280;63902;52.000;5.954;2023-01-30T01:41:30;101177.50;;;4.13;100.00
67931;BME280;63902;52.000;5.954;2023-01-30T01:42:33;101180.97;;;4.18;100.00
67931;BME280;63902;52.000;5.954;2023-01-30T01:43:36;101187.94;;;4.19;100.00
67931;BME280;63902;52.000;5.954;2023-01-30T01:44:56;101170.44;;;4.20;100.00
67931;BME280;63902;52.000;5.954;2023-01-30T01:46:02;101162.59;;;4.18;100.00
67931;BME280;63902;52.000;5.954;2023-01-30T01:47:08;101166.06;;;4.20;100.00
67931;BME280;63902;52.000;5.954;2023-01-30T01:48:11;101165.16;;;4.23;100.00
67931;BME280;63902;52.000;5.954;2023-01-30T01:49:19;101146.88;;;4.15;100.00
67931;BME280;63902;52.000;5.954;2023-01-30T01:50:24;101143.34;;;4.16;100.00
67931;BME280;63902;52.000;5.954;2023-01-30T01:51:28;101140.72;;;4.18;100.00
67931;BME280;63902;52.000;5.954;2023-01-30T01:52:31;101144.16;;;4.20;100.00
67931;BME280;63902;52.000;5.954;2023-01-30T01:53:33;101155.56;;;4.20;100.00
67931;BME280;63902;52.000;5.954;2023-01-30T01:54:38;101149.44;;;4.18;100.00
67931;BME280;63902;52.000;5.954;2023-01-30T01:55:40;101141.59;;;4.15;100.00
67931;BME280;63902;52.000;5.954;2023-01-30T01:56:44;101131.16;;;4.12;100.00
67931;BME280;63902;52.000;5.954;2023-01-30T01:57:49;101143.31;;;4.19;100.00
67931;BME280;63902;52.000;5.954;2023-01-30T01:58:51;101139.81;;;4.20;100.00
67931;BME280;63902;52.000;5.954;2023-01-30T01:59:58;101135.44;;;4.21;100.00
67931;BME280;63902;52.000;5.954;2023-01-30T02:01:02;101135.41;;;4.22;100.00
67931;BME280;63902;52.000;5.954;2023-01-30T02:02:06;101138.06;;;4.21;100.00
67931;BME280;63902;52.000;5.954;2023-01-30T02:03:11;101120.56;;;4.17;100.00
67931;BME280;63902;52.000;5.954;2023-01-30T02:04:14;101132.75;;;4.25;100.00
67931;BME280;63902;52.000;5.954;2023-01-30T02:05:16;101134.50;;;4.26;100.00
67931;BME280;63902;52.000;5.954;2023-01-30T02:06:18;101136.22;;;4.28;100.00
67931;BME280;63902;52.000;5.954;2023-01-30T02:07:20;101125.72;;;4.28;100.00
67931;BME280;63902;52.000;5.954;2023-01-30T02:08:24;101135.38;;;4.29;100.00
67931;BME280;63902;52.000;5.954;2023-01-30T02:09:26;101129.25;;;4.26;100.00
67931;BME280;63902;52.000;5.954;2023-01-30T02:10:34;101131.00;;;4.26;100.00
67931;BME280;63902;52.000;5.954;2023-01-30T02:11:41;101129.22;;;4.28;100.00
67931;BME280;63902;52.000;5.954;2023-01-30T02:12:43;101133.59;;;4.29;100.00
67931;BME280;63902;52.000;5.954;2023-01-30T02:13:45;101131.81;;;4.31;100.00
67931;BME280;63902;52.000;5.954;2023-01-30T02:14:47;101137.06;;;4.31;100.00
67931;BME280;63902;52.000;5.954;2023-01-30T02:15:48;101130.09;;;4.29;100.00
67931;BME280;63902;52.000;5.954;2023-01-30T02:16:49;101138.81;;;4.31;100.00
67931;BME280;63902;52.000;5.954;2023-01-30T02:17:51;101125.75;;;4.24;100.00
67931;BME280;63902;52.000;5.954;2023-01-30T02:18:51;101139.69;;;4.31;100.00
67931;BME280;63902;52.000;5.954;2023-01-30T02:19:56;101137.91;;;4.33;100.00
67931;BME280;63902;52.000;5.954;2023-01-30T02:21:22;101126.59;;;4.28;100.00
67931;BME280;63902;52.000;5.954;2023-01-30T02:22:50;101143.13;;;4.38;100.00
67931;BME280;63902;52.000;5.954;2023-01-30T02:24:26;101118.63;;;4.36;100.00
67931;BME280;63902;52.000;5.954;2023-01-30T02:27:19;101140.50;;;4.36;100.00
67931;BME280;63902;52.000;5.954;2023-01-30T02:28:57;101118.69;;;4.34;100.00
67931;BME280;63902;52.000;5.954;2023-01-30T02:30:14;101133.53;;;4.35;100.00
67931;BME280;63902;52.000;5.954;2023-01-30T02:31:28;101126.50;;;4.36;100.00
67931;BME280;63902;52.000;5.954;2023-01-30T02:32:33;101136.97;;;4.39;100.00
67931;BME280;63902;52.000;5.954;2023-01-30T02:33:39;101117.75;;;4.38;100.00
67931;BME280;63902;52.000;5.954;2023-01-30T02:34:47;101110.72;;;4.39;100.00
67931;BME280;63902;52.000;5.954;2023-01-30T02:35:57;101109.00;;;4.38;100.00
67931;BME280;63902;52.000;5.954;2023-01-30T02:37:11;101109.81;;;4.41;100.00
67931;BME280;63902;52.000;5.954;2023-01-30T02:38:21;101120.28;;;4.44;100.00
67931;BME280;63902;52.000;5.954;2023-01-30T02:39:33;101124.69;;;4.44;100.00
67931;BME280;63902;52.000;5.954;2023-01-30T02:40:41;101121.19;;;4.43;100.00
67931;BME280;63902;52.000;5.954;2023-01-30T02:41:51;101123.81;;;4.43;100.00
67931;BME280;63902;52.000;5.954;2023-01-30T02:43:03;101108.09;;;4.39;100.00
67931;BME280;63902;52.000;5.954;2023-01-30T02:44:10;101112.47;;;4.40;100.00
67931;BME280;63902;52.000;5.954;2023-01-30T02:45:20;101120.28;;;4.46;100.00
67931;BME280;63902;52.000;5.954;2023-01-30T02:46:25;101118.50;;;4.48;100.00
67931;BME280;63902;52.000;5.954;2023-01-30T02:47:30;101109.78;;;4.46;100.00
67931;BME280;63902;52.000;5.954;2023-01-30T02:48:37;101118.50;;;4.49;100.00
67931;BME280;63902;52.000;5.954;2023-01-30T02:49:41;101115.84;;;4.51;100.00
67931;BME280;63902;52.000;5.954;2023-01-30T02:50:46;101115.88;;;4.49;100.00
67931;BME280;63902;52.000;5.954;2023-01-30T02:51:49;101104.50;;;4.49;100.00
67931;BME280;63902;52.000;5.954;2023-01-30T02:52:50;101099.25;;;4.49;100.00
67931;BME280;63902;52.000;5.954;2023-01-30T02:53:52;101093.09;;;4.50;100.00
67931;BME280;63902;52.000;5.954;2023-01-30T02:54:53;101094.84;;;4.51;100.00
67931;BME280;63902;52.000;5.954;2023-01-30T02:55:54;101088.66;;;4.54;100.00
67931;BME280;63902;52.000;5.954;2023-01-30T02:56:57;101078.19;;;4.52;100.00
67931;BME280;63902;52.000;5.954;2023-01-30T02:57:58;101083.34;;;4.58;100.00
67931;BME280;63902;52.000;5.954;2023-01-30T02:59:01;101078.09;;;4.58;100.00
67931;BME280;63902;52.000;5.954;2023-01-30T03:00:05;101077.19;;;4.61;100.00
67931;BME280;63902;52.000;5.954;2023-01-30T03:01:39;101082.44;;;4.62;100.00
67931;BME280;63902;52.000;5.954;2023-01-30T03:02:54;101076.25;;;4.68;100.00
67931;BME280;63902;52.000;5.954;2023-01-30T03:04:13;101080.53;;;4.75;100.00
67931;BME280;63902;52.000;5.954;2023-01-30T03:05:32;101084.88;;;4.78;100.00
67931;BME280;63902;52.000;5.954;2023-01-30T03:06:51;101091.84;;;4.80;100.00
67931;BME280;63902;52.000;5.954;2023-01-30T03:08:04;101084.78;;;4.84;100.00
67931;BME280;63902;52.000;5.954;2023-01-30T03:09:15;101076.91;;;4.84;100.00
67931;BME280;63902;52.000;5.954;2023-01-30T03:10:25;101077.75;;;4.86;100.00
67931;BME280;63902;52.000;5.954;2023-01-30T03:11:35;101072.50;;;4.87;100.00
67931;BME280;63902;52.000;5.954;2023-01-30T03:12:48;101074.22;;;4.88;100.00
67931;BME280;63902;52.000;5.954;2023-01-30T03:13:54;101066.38;;;4.85;100.00
67931;BME280;63902;52.000;5.954;2023-01-30T03:14:58;101067.25;;;4.86;100.00
67931;BME280;63902;52.000;5.954;2023-01-30T03:16:04;101076.03;;;4.85;100.00
67931;BME280;63902;52.000;5.954;2023-01-30T03:17:07;101082.97;;;4.90;100.00
67931;BME280;63902;52.000;5.954;2023-01-30T03:18:09;101068.06;;;4.91;100.00
67931;BME280;63902;52.000;5.954;2023-01-30T03:19:11;101078.56;;;4.91;100.00
67931;BME280;63902;52.000;5.954;2023-01-30T03:20:13;101076.81;;;4.91;100.00
67931;BME280;63902;52.000;5.954;2023-01-30T03:21:14;101079.44;;;4.93;100.00
67931;BME280;63902;52.000;5.954;2023-01-30T03:22:15;101075.06;;;4.90;100.00
67931;BME280;63902;52.000;5.954;2023-01-30T03:23:15;101068.06;;;4.91;100.00
67931;BME280;63902;52.000;5.954;2023-01-30T03:24:16;101060.22;;;4.88;100.00
67931;BME280;63902;52.000;5.954;2023-01-30T03:25:19;101069.81;;;4.90;100.00
67931;BME280;63902;52.000;5.954;2023-01-30T03:26:23;101061.03;;;4.91;100.00
67931;BME280;63902;52.000;5.954;2023-01-30T03:27:25;101065.38;;;4.94;100.00
67931;BME280;63902;52.000;5.954;2023-01-30T03:28:26;101062.78;;;4.91;100.00
67931;BME280;63902;52.000;5.954;2023-01-30T03:29:27;101064.47;;;4.95;100.00
67931;BME280;63902;52.000;5.954;2023-01-30T03:30:28;101060.06;;;4.97;100.00
67931;BME280;63902;52.000;5.954;2023-01-30T03:31:28;101061.81;;;4.98;100.00
67931;BME280;63902;52.000;5.954;2023-01-30T03:32:30;101060.94;;;4.99;100.00
67931;BME280;63902;52.000;5.954;2023-01-30T03:33:31;101053.91;;;5.00;100.00
67931;BME280;63902;52.000;5.954;2023-01-30T03:34:31;101060.03;;;5.02;100.00
67931;BME280;63902;52.000;5.954;2023-01-30T03:35:32;101052.13;;;5.02;100.00
67931;BME280;63902;52.000;5.954;2023-01-30T03:36:32;101060.03;;;5.02;100.00
67931;BME280;63902;52.000;5.954;2023-01-30T03:37:33;101058.22;;;5.04;100.00
67931;BME280;63902;52.000;5.954;2023-01-30T03:38:34;101050.38;;;5.02;100.00
67931;BME280;63902;52.000;5.954;2023-01-30T03:39:35;101058.25;;;5.02;100.00
67931;BME280;63902;52.000;5.954;2023-01-30T03:40:36;101056.47;;;5.04;100.00
67931;BME280;63902;52.000;5.954;2023-01-30T03:41:37;101052.06;;;5.06;100.00
67931;BME280;63902;52.000;5.954;2023-01-30T03:42:37;101047.69;;;5.05;100.00
67931;BME280;63902;52.000;5.954;2023-01-30T03:43:38;101055.53;;;5.07;100.00
67931;BME280;63902;52.000;5.954;2023-01-30T03:44:38;101044.13;;;5.09;100.00
67931;BME280;63902;52.000;5.954;2023-01-30T03:45:39;101049.38;;;5.09;100.00
67931;BME280;63902;52.000;5.954;2023-01-30T03:46:39;101046.78;;;5.08;100.00
67931;BME280;63902;52.000;5.954;2023-01-30T03:47:41;101047.59;;;5.11;100.00
67931;BME280;63902;52.000;5.954;2023-01-30T03:48:41;101048.47;;;5.12;100.00
67931;BME280;63902;52.000;5.954;2023-01-30T03:49:42;101046.69;;;5.15;100.00
67931;BME280;63902;52.000;5.954;2023-01-30T03:50:42;101056.28;;;5.16;100.00
67931;BME280;63902;52.000;5.954;2023-01-30T03:51:43;101047.50;;;5.18;100.00
67931;BME280;63902;52.000;5.954;2023-01-30T03:52:43;101053.66;;;5.16;100.00
67931;BME280;63902;52.000;5.954;2023-01-30T03:53:44;101055.47;;;5.13;100.00
67931;BME280;63902;52.000;5.954;2023-01-30T03:54:44;101058.13;;;5.11;100.00
67931;BME280;63902;52.000;5.954;2023-01-30T03:55:45;101057.19;;;5.14;100.00
67931;BME280;63902;52.000;5.954;2023-01-30T03:56:45;101051.94;;;5.15;100.00
67931;BME280;63902;52.000;5.954;2023-01-30T03:57:45;101049.31;;;5.15;100.00
67931;BME280;63902;52.000;5.954;2023-01-30T03:58:46;101043.19;;;5.13;100.00
67931;BME280;63902;52.000;5.954;2023-01-30T03:59:46;101054.50;;;5.19;100.00
67931;BME280;63902;52.000;5.954;2023-01-30T04:00:47;101053.63;;;5.20;100.00
67931;BME280;63902;52.000;5.954;2023-01-30T04:01:47;101051.88;;;5.19;100.00
67931;BME280;63902;52.000;5.954;2023-01-30T04:02:49;101051.03;;;5.16;100.00
67931;BME280;63902;52.000;5.954;2023-01-30T04:03:50;101040.56;;;5.12;100.00
67931;BME280;63902;52.000;5.954;2023-01-30T04:04:50;101052.75;;;5.18;100.00
67931;BME280;63902;52.000;5.954;2023-01-30T04:05:51;101049.31;;;5.14;100.00
67931;BME280;63902;52.000;5.954;2023-01-30T04:06:51;101051.09;;;5.13;100.00
67931;BME280;63902;52.000;5.954;2023-01-30T04:07:55;101063.22;;;5.21;100.00
67931;BME280;63902;52.000;5.954;2023-01-30T04:08:55;101043.16;;;5.16;100.00
67931;BME280;63902;52.000;5.954;2023-01-30T04:09:56;101061.50;;;5.18;100.00
67931;BME280;63902;52.000;5.954;2023-01-30T04:10:56;101043.94;;;5.22;100.00
67931;BME280;63902;52.000;5.954;2023-01-30T04:11:57;101052.69;;;5.22;100.00
67931;BME280;63902;52.000;5.954;2023-01-30T04:12:57;101057.06;;;5.23;100.00
67931;BME280;63902;52.000;5.954;2023-01-30T04:13:58;101043.16;;;5.16;100.00
67931;BME280;63902;52.000;5.954;2023-01-30T04:14:58;101049.25;;;5.19;100.00
67931;BME280;63902;52.000;5.954;2023-01-30T04:16:19;101051.88;;;5.19;100.00
67931;BME280;63902;52.000;5.954;2023-01-30T04:17:20;101063.22;;;5.24;100.00
67931;BME280;63902;52.000;5.954;2023-01-30T04:18:22;101058.72;;;5.29;100.00
67931;BME280;63902;52.000;5.954;2023-01-30T04:19:22;101064.03;;;5.26;100.00
67931;BME280;63902;52.000;5.954;2023-01-30T04:20:23;101062.19;;;5.32;100.00
67931;BME280;63902;52.000;5.954;2023-01-30T04:21:23;101063.06;;;5.33;100.00
67931;BME280;63902;52.000;5.954;2023-01-30T04:22:23;101061.31;;;5.32;100.00
67931;BME280;63902;52.000;5.954;2023-01-30T04:23:24;101053.47;;;5.29;100.00
67931;BME280;63902;52.000;5.954;2023-01-30T04:24:24;101058.72;;;5.29;100.00
67931;BME280;63902;52.000;5.954;2023-01-30T04:25:25;101050.88;;;5.26;100.00
67931;BME280;63902;52.000;5.954;2023-01-30T04:26:25;101053.50;;;5.27;100.00
67931;BME280;63902;52.000;5.954;2023-01-30T04:27:26;101061.34;;;5.29;100.00
67931;BME280;63902;52.000;5.954;2023-01-30T04:28:26;101032.69;;;5.13;100.00
67931;BME280;63902;52.000;5.954;2023-01-30T04:29:27;101062.25;;;5.28;100.00
67931;BME280;63902;52.000;5.954;2023-01-30T04:30:27;101059.63;;;5.29;100.00
67931;BME280;63902;52.000;5.954;2023-01-30T04:31:27;101063.06;;;5.33;100.00
67931;BME280;63902;52.000;5.954;2023-01-30T04:32:28;101070.09;;;5.32;100.00
67931;BME280;63902;52.000;5.954;2023-01-30T04:33:30;101054.31;;;5.31;100.00
67931;BME280;63902;52.000;5.954;2023-01-30T04:34:30;101048.16;;;5.32;100.00
67931;BME280;63902;52.000;5.954;2023-01-30T04:35:31;101053.34;;;5.36;100.00
67931;BME280;63902;52.000;5.954;2023-01-30T04:36:31;101056.88;;;5.35;100.00
67931;BME280;63902;52.000;5.954;2023-01-30T04:37:31;101052.50;;;5.34;100.00
67931;BME280;63902;52.000;5.954;2023-01-30T04:38:33;101037.63;;;5.32;100.00
67931;BME280;63902;52.000;5.954;2023-01-30T04:39:33;101038.47;;;5.34;100.00
67931;BME280;63902;52.000;5.954;2023-01-30T04:40:34;101040.25;;;5.35;100.00
67931;BME280;63902;52.000;5.954;2023-01-30T04:41:34;101050.75;;;5.35;100.00
67931;BME280;63902;52.000;5.954;2023-01-30T04:42:35;101032.31;;;5.36;100.00
67931;BME280;63902;52.000;5.954;2023-01-30T04:43:35;101044.59;;;5.36;100.00
67931;BME280;63902;52.000;5.954;2023-01-30T04:44:36;101032.38;;;5.32;100.00
67931;BME280;63902;52.000;5.954;2023-01-30T04:45:36;101032.41;;;5.30;100.00
67931;BME280;63902;52.000;5.954;2023-01-30T04:46:36;101039.41;;;5.31;100.00
67931;BME280;63902;52.000;5.954;2023-01-30T04:47:37;101055.06;;;5.39;100.00
67931;BME280;63902;52.000;5.954;2023-01-30T04:48:39;101041.91;;;5.39;100.00
67931;BME280;63902;52.000;5.954;2023-01-30T04:49:39;101041.91;;;5.41;100.00
67931;BME280;63902;52.000;5.954;2023-01-30T04:50:41;101045.41;;;5.41;100.00
67931;BME280;63902;52.000;5.954;2023-01-30T04:51:42;101038.44;;;5.37;100.00
67931;BME280;63902;52.000;5.954;2023-01-30T04:52:42;101048.91;;;5.40;100.00
67931;BME280;63902;52.000;5.954;2023-01-30T04:53:43;101047.19;;;5.39;100.00
67931;BME280;63902;52.000;5.954;2023-01-30T04:54:43;101052.38;;;5.42;100.00
67931;BME280;63902;52.000;5.954;2023-01-30T04:55:44;101064.63;;;5.43;100.00
67931;BME280;63902;52.000;5.954;2023-01-30T04:56:44;101062.00;;;5.45;100.00
67931;BME280;63902;52.000;5.954;2023-01-30T04:57:44;101062.84;;;5.45;100.00
67931;BME280;63902;52.000;5.954;2023-01-30T04:58:45;101058.44;;;5.46;100.00
67931;BME280;63902;52.000;5.954;2023-01-30T04:59:45;101061.13;;;5.44;100.00
67931;BME280;63902;52.000;5.954;2023-01-30T05:00:46;101062.03;;;5.42;100.00
67931;BME280;63902;52.000;5.954;2023-01-30T05:01:47;101059.38;;;5.43;100.00
67931;BME280;63902;52.000;5.954;2023-01-30T05:02:47;101057.59;;;5.45;100.00
67931;BME280;63902;52.000;5.954;2023-01-30T05:03:50;101063.72;;;5.46;100.00
67931;BME280;63902;52.000;5.954;2023-01-30T05:04:50;101052.34;;;5.45;100.00
67931;BME280;63902;52.000;5.954;2023-01-30T05:05:51;101061.09;;;5.46;100.00
67931;BME280;63902;52.000;5.954;2023-01-30T05:06:51;101049.69;;;5.45;100.00
67931;BME280;63902;52.000;5.954;2023-01-30T05:07:52;101045.28;;;5.47;100.00
67931;BME280;63902;52.000;5.954;2023-01-30T05:08:54;101052.25;;;5.50;100.00
67931;BME280;63902;52.000;5.954;2023-01-30T05:09:55;101033.00;;;5.49;100.00
67931;BME280;63902;52.000;5.954;2023-01-30T05:10:56;101040.84;;;5.51;100.00
67931;BME280;63902;52.000;5.954;2023-01-30T05:11:57;101040.88;;;5.49;100.00
67931;BME280;63902;52.000;5.954;2023-01-30T05:13:01;101043.50;;;5.49;100.00
67931;BME280;63902;52.000;5.954;2023-01-30T05:14:01;101056.56;;;5.54;100.00
67931;BME280;63902;52.000;5.954;2023-01-30T05:15:02;101045.19;;;5.53;100.00
67931;BME280;63902;52.000;5.954;2023-01-30T05:16:03;101041.75;;;5.48;100.00
67931;BME280;63902;52.000;5.954;2023-01-30T05:17:03;101049.63;;;5.50;100.00
67931;BME280;63902;52.000;5.954;2023-01-30T05:18:04;101053.13;;;5.52;100.00
67931;BME280;63902;52.000;5.954;2023-01-30T05:19:06;101045.22;;;5.52;100.00
67931;BME280;63902;52.000;5.954;2023-01-30T05:20:08;101048.69;;;5.54;100.00
67931;BME280;63902;52.000;5.954;2023-01-30T05:21:10;101044.31;;;5.53;100.00
67931;BME280;63902;52.000;5.954;2023-01-30T05:22:11;101044.25;;;5.56;100.00
67931;BME280;63902;52.000;5.954;2023-01-30T05:23:11;101042.53;;;5.55;100.00
67931;BME280;63902;52.000;5.954;2023-01-30T05:24:12;101048.66;;;5.55;100.00
67931;BME280;63902;52.000;5.954;2023-01-30T05:25:13;101054.72;;;5.60;100.00
67931;BME280;63902;52.000;5.954;2023-01-30T05:26:14;101049.47;;;5.60;100.00
67931;BME280;63902;52.000;5.954;2023-01-30T05:27:14;101051.19;;;5.63;100.00
67931;BME280;63902;52.000;5.954;2023-01-30T05:28:15;101053.75;;;5.65;100.00
67931;BME280;63902;52.000;5.954;2023-01-30T05:29:15;101059.88;;;5.65;100.00